sensor_id;sensor_type;location;lat;lon;timestamp;temperature;humidity
8862;DHT22;4799;50.996;4.754;2022-09-21T00:00:49;8.50;99.90
8862;DHT22;4799;50.996;4.754;2022-09-21T00:03:15;8.50;99.90
8862;DHT22;4799;50.996;4.754;2022-09-21T00:05:41;8.50;99.90
8862;DHT22;4799;50.996;4.754;2022-09-21T00:08:09;8.40;99.90
8862;DHT22;4799;50.996;4.754;2022-09-21T00:10:36;8.40;99.90
8862;DHT22;4799;50.996;4.754;2022-09-21T00:13:03;8.40;99.90
8862;DHT22;4799;50.996;4.754;2022-09-21T00:15:30;8.30;99.90
8862;DHT22;4799;50.996;4.754;2022-09-21T00:17:59;8.30;99.90
8862;DHT22;4799;50.996;4.754;2022-09-21T00:20:26;8.30;99.90
8862;DHT22;4799;50.996;4.754;2022-09-21T00:22:52;8.20;99.90
8862;DHT22;4799;50.996;4.754;2022-09-21T00:25:18;8.20;99.90
8862;DHT22;4799;50.996;4.754;2022-09-21T00:27:45;8.20;99.90
8862;DHT22;4799;50.996;4.754;2022-09-21T00:30:16;8.20;99.90
8862;DHT22;4799;50.996;4.754;2022-09-21T00:32:42;8.20;99.90
8862;DHT22;4799;50.996;4.754;2022-09-21T00:35:08;8.20;99.90
8862;DHT22;4799;50.996;4.754;2022-09-21T00:37:34;8.10;99.90
8862;DHT22;4799;50.996;4.754;2022-09-21T00:40:01;8.10;99.90
8862;DHT22;4799;50.996;4.754;2022-09-21T00:42:31;8.10;99.90
8862;DHT22;4799;50.996;4.754;2022-09-21T00:44:57;8.10;99.90
8862;DHT22;4799;50.996;4.754;2022-09-21T00:47:27;8.10;99.90
8862;DHT22;4799;50.996;4.754;2022-09-21T00:49:57;8.10;99.90
8862;DHT22;4799;50.996;4.754;2022-09-21T00:52:24;8.00;99.90
8862;DHT22;4799;50.996;4.754;2022-09-21T00:54:55;7.90;99.90
8862;DHT22;4799;50.996;4.754;2022-09-21T00:57:23;7.90;99.90
8862;DHT22;4799;50.996;4.754;2022-09-21T00:59:51;7.90;99.90
8862;DHT22;4799;50.996;4.754;2022-09-21T01:02:19;7.90;99.90
8862;DHT22;4799;50.996;4.754;2022-09-21T01:04:46;7.80;99.90
8862;DHT22;4799;50.996;4.754;2022-09-21T01:07:18;7.80;99.90
8862;DHT22;4799;50.996;4.754;2022-09-21T01:09:47;7.80;99.90
8862;DHT22;4799;50.996;4.754;2022-09-21T01:12:45;7.70;99.90
8862;DHT22;4799;50.996;4.754;2022-09-21T01:15:35;7.70;99.90
8862;DHT22;4799;50.996;4.754;2022-09-21T01:18:23;7.70;99.90
8862;DHT22;4799;50.996;4.754;2022-09-21T01:21:16;7.60;99.90
8862;DHT22;4799;50.996;4.754;2022-09-21T01:32:33;7.50;99.90
8862;DHT22;4799;50.996;4.754;2022-09-21T01:35:06;7.40;99.90
8862;DHT22;4799;50.996;4.754;2022-09-21T01:37:55;7.40;99.90
8862;DHT22;4799;50.996;4.754;2022-09-21T01:40:28;7.30;99.90
8862;DHT22;4799;50.996;4.754;2022-09-21T01:42:56;7.30;99.90
8862;DHT22;4799;50.996;4.754;2022-09-21T01:45:32;7.30;99.90
8862;DHT22;4799;50.996;4.754;2022-09-21T01:48:00;7.30;99.90
8862;DHT22;4799;50.996;4.754;2022-09-21T01:50:32;7.20;99.90
8862;DHT22;4799;50.996;4.754;2022-09-21T01:53:06;7.20;99.90
8862;DHT22;4799;50.996;4.754;2022-09-21T01:55:38;7.20;99.90
8862;DHT22;4799;50.996;4.754;2022-09-21T02:00:44;7.20;99.90
8862;DHT22;4799;50.996;4.754;2022-09-21T02:05:47;7.10;99.90
8862;DHT22;4799;50.996;4.754;2022-09-21T02:08:13;7.10;99.90
8862;DHT22;4799;50.996;4.754;2022-09-21T02:10:44;7.00;99.90
8862;DHT22;4799;50.996;4.754;2022-09-21T02:13:12;7.00;99.90
8862;DHT22;4799;50.996;4.754;2022-09-21T02:18:20;7.00;99.90
8862;DHT22;4799;50.996;4.754;2022-09-21T02:20:57;6.90;99.90
8862;DHT22;4799;50.996;4.754;2022-09-21T02:24:11;6.90;99.90
8862;DHT22;4799;50.996;4.754;2022-09-21T02:26:42;6.90;99.90
8862;DHT22;4799;50.996;4.754;2022-09-21T02:32:22;6.90;99.90
8862;DHT22;4799;50.996;4.754;2022-09-21T02:34:57;6.90;99.90
8862;DHT22;4799;50.996;4.754;2022-09-21T02:37:33;6.90;99.90
8862;DHT22;4799;50.996;4.754;2022-09-21T02:42:40;6.80;99.90
8862;DHT22;4799;50.996;4.754;2022-09-21T02:45:30;6.80;99.90
8862;DHT22;4799;50.996;4.754;2022-09-21T02:48:13;6.80;99.90
8862;DHT22;4799;50.996;4.754;2022-09-21T02:50:45;6.80;99.90
8862;DHT22;4799;50.996;4.754;2022-09-21T02:53:16;6.80;99.90
8862;DHT22;4799;50.996;4.754;2022-09-21T02:55:43;6.80;99.90
8862;DHT22;4799;50.996;4.754;2022-09-21T02:58:13;6.80;99.90
8862;DHT22;4799;50.996;4.754;2022-09-21T03:00:40;6.80;99.90
8862;DHT22;4799;50.996;4.754;2022-09-21T03:03:20;6.80;99.90
8862;DHT22;4799;50.996;4.754;2022-09-21T03:05:48;6.70;99.90
8862;DHT22;4799;50.996;4.754;2022-09-21T03:08:15;6.70;99.90
8862;DHT22;4799;50.996;4.754;2022-09-21T03:10:42;6.70;99.90
8862;DHT22;4799;50.996;4.754;2022-09-21T03:13:08;6.70;99.90
8862;DHT22;4799;50.996;4.754;2022-09-21T03:15:40;6.70;99.90
8862;DHT22;4799;50.996;4.754;2022-09-21T03:18:08;6.70;99.90
8862;DHT22;4799;50.996;4.754;2022-09-21T03:20:43;6.70;99.90
8862;DHT22;4799;50.996;4.754;2022-09-21T03:23:11;6.70;99.90
8862;DHT22;4799;50.996;4.754;2022-09-21T03:25:37;6.70;99.90
8862;DHT22;4799;50.996;4.754;2022-09-21T03:28:03;6.70;99.90
8862;DHT22;4799;50.996;4.754;2022-09-21T03:30:29;6.70;99.90
8862;DHT22;4799;50.996;4.754;2022-09-21T03:32:56;6.60;99.90
8862;DHT22;4799;50.996;4.754;2022-09-21T03:35:23;6.60;99.90
8862;DHT22;4799;50.996;4.754;2022-09-21T03:37:51;6.60;99.90
8862;DHT22;4799;50.996;4.754;2022-09-21T03:40:17;6.50;99.90
8862;DHT22;4799;50.996;4.754;2022-09-21T03:42:43;6.50;99.90
8862;DHT22;4799;50.996;4.754;2022-09-21T03:45:10;6.50;99.90
8862;DHT22;4799;50.996;4.754;2022-09-21T03:47:37;6.40;99.90
8862;DHT22;4799;50.996;4.754;2022-09-21T03:50:05;6.40;99.90
8862;DHT22;4799;50.996;4.754;2022-09-21T03:52:31;6.40;99.90
8862;DHT22;4799;50.996;4.754;2022-09-21T03:54:56;6.40;99.90
8862;DHT22;4799;50.996;4.754;2022-09-21T03:57:22;6.40;99.90
8862;DHT22;4799;50.996;4.754;2022-09-21T03:59:48;6.40;99.90
8862;DHT22;4799;50.996;4.754;2022-09-21T04:02:15;6.40;99.90
8862;DHT22;4799;50.996;4.754;2022-09-21T04:04:41;6.40;99.90
8862;DHT22;4799;50.996;4.754;2022-09-21T04:07:07;6.40;99.90
8862;DHT22;4799;50.996;4.754;2022-09-21T04:09:32;6.40;99.90
8862;DHT22;4799;50.996;4.754;2022-09-21T04:11:58;6.40;99.90
8862;DHT22;4799;50.996;4.754;2022-09-21T04:14:24;6.40;99.90
8862;DHT22;4799;50.996;4.754;2022-09-21T04:16:49;6.40;99.90
8862;DHT22;4799;50.996;4.754;2022-09-21T04:19:17;6.40;99.90
8862;DHT22;4799;50.996;4.754;2022-09-21T04:21:43;6.40;99.90
8862;DHT22;4799;50.996;4.754;2022-09-21T04:24:08;6.40;99.90
8862;DHT22;4799;50.996;4.754;2022-09-21T04:26:35;6.40;99.90
8862;DHT22;4799;50.996;4.754;2022-09-21T04:29:01;6.40;99.90
8862;DHT22;4799;50.996;4.754;2022-09-21T04:31:28;6.40;99.90
8862;DHT22;4799;50.996;4.754;2022-09-21T04:33:56;6.40;99.90
8862;DHT22;4799;50.996;4.754;2022-09-21T04:36:23;6.40;99.90
8862;DHT22;4799;50.996;4.754;2022-09-21T04:38:49;6.40;99.90
8862;DHT22;4799;50.996;4.754;2022-09-21T04:41:15;6.40;99.90
8862;DHT22;4799;50.996;4.754;2022-09-21T04:43:43;6.30;99.90
8862;DHT22;4799;50.996;4.754;2022-09-21T04:46:12;6.30;99.90
8862;DHT22;4799;50.996;4.754;2022-09-21T04:48:38;6.30;99.90
8862;DHT22;4799;50.996;4.754;2022-09-21T04:51:04;6.20;99.90
8862;DHT22;4799;50.996;4.754;2022-09-21T04:53:37;6.20;99.90
8862;DHT22;4799;50.996;4.754;2022-09-21T04:56:04;6.20;99.90
8862;DHT22;4799;50.996;4.754;2022-09-21T04:58:31;6.10;99.90
8862;DHT22;4799;50.996;4.754;2022-09-21T05:00:57;6.10;99.90
8862;DHT22;4799;50.996;4.754;2022-09-21T05:03:24;6.10;99.90
8862;DHT22;4799;50.996;4.754;2022-09-21T05:05:55;6.10;99.90
8862;DHT22;4799;50.996;4.754;2022-09-21T05:08:22;6.00;99.90
8862;DHT22;4799;50.996;4.754;2022-09-21T05:11:10;6.00;99.90
8862;DHT22;4799;50.996;4.754;2022-09-21T05:13:41;6.00;99.90
8862;DHT22;4799;50.996;4.754;2022-09-21T05:16:07;6.00;99.90
8862;DHT22;4799;50.996;4.754;2022-09-21T05:18:33;6.00;99.90
8862;DHT22;4799;50.996;4.754;2022-09-21T05:21:01;6.00;99.90
8862;DHT22;4799;50.996;4.754;2022-09-21T05:23:27;6.00;99.90
8862;DHT22;4799;50.996;4.754;2022-09-21T05:25:54;6.10;99.90
8862;DHT22;4799;50.996;4.754;2022-09-21T05:28:21;6.10;99.90
8862;DHT22;4799;50.996;4.754;2022-09-21T05:30:53;6.10;99.90
8862;DHT22;4799;50.996;4.754;2022-09-21T05:33:22;6.10;99.90
8862;DHT22;4799;50.996;4.754;2022-09-21T05:36:08;6.10;99.90
8862;DHT22;4799;50.996;4.754;2022-09-21T05:38:37;6.10;99.90
8862;DHT22;4799;50.996;4.754;2022-09-21T05:41:03;6.10;99.90
8862;DHT22;4799;50.996;4.754;2022-09-21T05:43:29;6.10;99.90
8862;DHT22;4799;50.996;4.754;2022-09-21T05:46:04;6.20;99.90
8862;DHT22;4799;50.996;4.754;2022-09-21T05:48:40;6.20;99.90
8862;DHT22;4799;50.996;4.754;2022-09-21T05:56:29;6.30;99.90
8862;DHT22;4799;50.996;4.754;2022-09-21T05:59:04;6.30;99.90
8862;DHT22;4799;50.996;4.754;2022-09-21T06:01:41;6.30;99.90
8862;DHT22;4799;50.996;4.754;2022-09-21T06:04:11;6.40;99.90
8862;DHT22;4799;50.996;4.754;2022-09-21T06:06:37;6.40;99.90
8862;DHT22;4799;50.996;4.754;2022-09-21T06:09:03;6.50;99.90
8862;DHT22;4799;50.996;4.754;2022-09-21T06:11:29;6.50;99.90
8862;DHT22;4799;50.996;4.754;2022-09-21T06:13:55;6.60;99.90
8862;DHT22;4799;50.996;4.754;2022-09-21T06:16:21;6.60;99.90
8862;DHT22;4799;50.996;4.754;2022-09-21T06:18:47;6.60;99.90
8862;DHT22;4799;50.996;4.754;2022-09-21T06:21:12;6.60;99.90
8862;DHT22;4799;50.996;4.754;2022-09-21T06:23:38;6.60;99.90
8862;DHT22;4799;50.996;4.754;2022-09-21T06:26:04;6.60;99.90
8862;DHT22;4799;50.996;4.754;2022-09-21T06:28:30;6.60;99.90
8862;DHT22;4799;50.996;4.754;2022-09-21T06:30:56;6.60;99.90
8862;DHT22;4799;50.996;4.754;2022-09-21T06:33:22;6.60;99.90
8862;DHT22;4799;50.996;4.754;2022-09-21T06:35:52;6.70;99.90
8862;DHT22;4799;50.996;4.754;2022-09-21T06:38:18;6.70;99.90
8862;DHT22;4799;50.996;4.754;2022-09-21T06:40:43;6.80;99.90
8862;DHT22;4799;50.996;4.754;2022-09-21T06:43:09;6.80;99.90
8862;DHT22;4799;50.996;4.754;2022-09-21T06:45:35;6.90;99.90
8862;DHT22;4799;50.996;4.754;2022-09-21T06:48:01;6.90;99.90
8862;DHT22;4799;50.996;4.754;2022-09-21T06:50:26;7.00;99.90
8862;DHT22;4799;50.996;4.754;2022-09-21T06:52:52;7.10;99.90
8862;DHT22;4799;50.996;4.754;2022-09-21T06:55:18;7.10;99.90
8862;DHT22;4799;50.996;4.754;2022-09-21T06:57:43;7.20;99.90
8862;DHT22;4799;50.996;4.754;2022-09-21T07:00:11;7.20;99.90
8862;DHT22;4799;50.996;4.754;2022-09-21T07:02:37;7.30;99.90
8862;DHT22;4799;50.996;4.754;2022-09-21T07:05:03;7.30;99.90
8862;DHT22;4799;50.996;4.754;2022-09-21T07:07:29;7.40;99.90
8862;DHT22;4799;50.996;4.754;2022-09-21T07:09:56;7.50;99.90
8862;DHT22;4799;50.996;4.754;2022-09-21T07:12:23;7.50;99.90
8862;DHT22;4799;50.996;4.754;2022-09-21T07:14:51;7.60;99.90
8862;DHT22;4799;50.996;4.754;2022-09-21T07:17:16;7.70;99.90
8862;DHT22;4799;50.996;4.754;2022-09-21T07:19:42;7.70;99.90
8862;DHT22;4799;50.996;4.754;2022-09-21T07:22:08;7.80;99.90
8862;DHT22;4799;50.996;4.754;2022-09-21T07:24:33;8.00;99.90
8862;DHT22;4799;50.996;4.754;2022-09-21T07:26:59;8.10;99.90
8862;DHT22;4799;50.996;4.754;2022-09-21T07:29:25;8.20;99.90
8862;DHT22;4799;50.996;4.754;2022-09-21T07:31:50;8.30;99.90
8862;DHT22;4799;50.996;4.754;2022-09-21T07:34:16;8.30;99.90
8862;DHT22;4799;50.996;4.754;2022-09-21T07:36:42;8.40;99.90
8862;DHT22;4799;50.996;4.754;2022-09-21T07:39:09;8.50;99.90
8862;DHT22;4799;50.996;4.754;2022-09-21T07:41:35;8.60;99.90
8862;DHT22;4799;50.996;4.754;2022-09-21T07:44:02;8.70;99.90
8862;DHT22;4799;50.996;4.754;2022-09-21T07:46:28;8.80;99.90
8862;DHT22;4799;50.996;4.754;2022-09-21T07:48:54;8.90;99.90
8862;DHT22;4799;50.996;4.754;2022-09-21T07:51:21;8.90;99.90
8862;DHT22;4799;50.996;4.754;2022-09-21T07:53:53;9.10;99.90
8862;DHT22;4799;50.996;4.754;2022-09-21T07:56:21;9.20;99.90
8862;DHT22;4799;50.996;4.754;2022-09-21T07:58:47;9.30;99.90
8862;DHT22;4799;50.996;4.754;2022-09-21T08:01:32;9.40;99.90
8862;DHT22;4799;50.996;4.754;2022-09-21T08:03:59;9.50;99.90
8862;DHT22;4799;50.996;4.754;2022-09-21T08:06:27;9.60;99.90
8862;DHT22;4799;50.996;4.754;2022-09-21T08:08:54;9.70;99.90
8862;DHT22;4799;50.996;4.754;2022-09-21T08:11:21;9.80;99.90
8862;DHT22;4799;50.996;4.754;2022-09-21T08:13:50;10.00;99.90
8862;DHT22;4799;50.996;4.754;2022-09-21T08:16:16;10.00;99.90
8862;DHT22;4799;50.996;4.754;2022-09-21T08:18:42;10.10;99.90
8862;DHT22;4799;50.996;4.754;2022-09-21T08:21:09;10.20;99.90
8862;DHT22;4799;50.996;4.754;2022-09-21T08:23:35;10.30;99.90
8862;DHT22;4799;50.996;4.754;2022-09-21T08:26:06;10.40;99.90
8862;DHT22;4799;50.996;4.754;2022-09-21T08:28:33;10.50;99.90
8862;DHT22;4799;50.996;4.754;2022-09-21T08:30:59;10.50;99.90
8862;DHT22;4799;50.996;4.754;2022-09-21T08:33:26;10.60;99.90
8862;DHT22;4799;50.996;4.754;2022-09-21T08:35:53;10.60;99.90
8862;DHT22;4799;50.996;4.754;2022-09-21T08:38:19;10.70;99.90
8862;DHT22;4799;50.996;4.754;2022-09-21T08:40:45;10.80;99.90
8862;DHT22;4799;50.996;4.754;2022-09-21T08:43:38;10.80;99.90
8862;DHT22;4799;50.996;4.754;2022-09-21T08:46:09;10.80;99.90
8862;DHT22;4799;50.996;4.754;2022-09-21T08:48:43;11.00;99.90
8862;DHT22;4799;50.996;4.754;2022-09-21T08:51:14;11.10;99.90
8862;DHT22;4799;50.996;4.754;2022-09-21T08:53:45;11.20;99.90
8862;DHT22;4799;50.996;4.754;2022-09-21T08:56:14;11.30;99.90
8862;DHT22;4799;50.996;4.754;2022-09-21T08:58:41;11.30;99.90
8862;DHT22;4799;50.996;4.754;2022-09-21T09:07:34;11.50;99.90
8862;DHT22;4799;50.996;4.754;2022-09-21T09:20:56;12.00;99.90
8862;DHT22;4799;50.996;4.754;2022-09-21T09:23:30;12.00;99.90
8862;DHT22;4799;50.996;4.754;2022-09-21T09:26:05;12.10;99.90
8862;DHT22;4799;50.996;4.754;2022-09-21T09:28:54;12.20;99.90
8862;DHT22;4799;50.996;4.754;2022-09-21T09:31:32;12.30;99.90
8862;DHT22;4799;50.996;4.754;2022-09-21T09:34:15;12.40;99.90
8862;DHT22;4799;50.996;4.754;2022-09-21T09:36:49;12.50;99.90
8862;DHT22;4799;50.996;4.754;2022-09-21T09:39:16;12.50;99.90
8862;DHT22;4799;50.996;4.754;2022-09-21T09:52:26;12.90;99.90
8862;DHT22;4799;50.996;4.754;2022-09-21T09:54:52;13.00;99.90
8862;DHT22;4799;50.996;4.754;2022-09-21T09:57:28;13.10;99.90
8862;DHT22;4799;50.996;4.754;2022-09-21T10:00:03;13.10;99.90
8862;DHT22;4799;50.996;4.754;2022-09-21T10:03:06;13.20;99.90
8862;DHT22;4799;50.996;4.754;2022-09-21T10:05:34;13.30;99.90
8862;DHT22;4799;50.996;4.754;2022-09-21T10:08:02;13.40;99.90
8862;DHT22;4799;50.996;4.754;2022-09-21T10:10:30;13.40;99.90
8862;DHT22;4799;50.996;4.754;2022-09-21T10:15:42;13.50;99.90
8862;DHT22;4799;50.996;4.754;2022-09-21T10:18:19;13.60;99.90
8862;DHT22;4799;50.996;4.754;2022-09-21T10:23:30;14.00;99.90
8862;DHT22;4799;50.996;4.754;2022-09-21T10:26:11;14.00;99.90
8862;DHT22;4799;50.996;4.754;2022-09-21T10:28:57;14.10;99.90
8862;DHT22;4799;50.996;4.754;2022-09-21T10:31:29;14.20;99.90
8862;DHT22;4799;50.996;4.754;2022-09-21T10:34:05;14.30;99.90
8862;DHT22;4799;50.996;4.754;2022-09-21T10:36:36;14.40;99.90
8862;DHT22;4799;50.996;4.754;2022-09-21T10:39:22;14.50;99.90
8862;DHT22;4799;50.996;4.754;2022-09-21T10:42:15;14.70;99.90
8862;DHT22;4799;50.996;4.754;2022-09-21T10:44:44;15.00;99.90
8862;DHT22;4799;50.996;4.754;2022-09-21T10:49:57;15.50;99.90
8862;DHT22;4799;50.996;4.754;2022-09-21T10:52:35;15.80;99.90
8862;DHT22;4799;50.996;4.754;2022-09-21T10:55:01;16.00;99.90
8862;DHT22;4799;50.996;4.754;2022-09-21T10:57:28;16.30;99.90
8862;DHT22;4799;50.996;4.754;2022-09-21T10:59:54;16.50;99.90
8862;DHT22;4799;50.996;4.754;2022-09-21T11:05:11;16.70;99.90
8862;DHT22;4799;50.996;4.754;2022-09-21T11:08:04;16.70;99.90
8862;DHT22;4799;50.996;4.754;2022-09-21T11:10:40;16.80;99.90
8862;DHT22;4799;50.996;4.754;2022-09-21T11:23:48;17.40;99.90
8862;DHT22;4799;50.996;4.754;2022-09-21T11:26:33;17.30;99.90
8862;DHT22;4799;50.996;4.754;2022-09-21T11:48:40;18.30;99.90
8862;DHT22;4799;50.996;4.754;2022-09-21T11:51:28;18.10;99.90
8862;DHT22;4799;50.996;4.754;2022-09-21T11:54:22;17.90;99.70
8862;DHT22;4799;50.996;4.754;2022-09-21T12:10:44;16.90;99.90
8862;DHT22;4799;50.996;4.754;2022-09-21T12:13:30;16.70;99.90
8862;DHT22;4799;50.996;4.754;2022-09-21T12:16:24;16.60;99.70
8862;DHT22;4799;50.996;4.754;2022-09-21T12:21:37;16.50;99.90
8862;DHT22;4799;50.996;4.754;2022-09-21T12:24:41;16.50;99.90
8862;DHT22;4799;50.996;4.754;2022-09-21T12:27:31;16.40;99.90
8862;DHT22;4799;50.996;4.754;2022-09-21T12:30:06;16.20;99.90
8862;DHT22;4799;50.996;4.754;2022-09-21T12:32:42;16.10;99.90
8862;DHT22;4799;50.996;4.754;2022-09-21T12:35:23;16.00;99.90
8862;DHT22;4799;50.996;4.754;2022-09-21T12:40:37;15.90;99.90
8862;DHT22;4799;50.996;4.754;2022-09-21T12:43:21;15.90;99.90
8862;DHT22;4799;50.996;4.754;2022-09-21T12:45:55;15.90;99.90
8862;DHT22;4799;50.996;4.754;2022-09-21T12:50:54;15.90;99.90
8862;DHT22;4799;50.996;4.754;2022-09-21T12:53:25;16.00;99.90
8862;DHT22;4799;50.996;4.754;2022-09-21T12:56:18;16.10;99.90
8862;DHT22;4799;50.996;4.754;2022-09-21T12:58:52;16.10;99.90
8862;DHT22;4799;50.996;4.754;2022-09-21T13:01:36;16.10;99.90
8862;DHT22;4799;50.996;4.754;2022-09-21T13:04:33;16.10;99.90
8862;DHT22;4799;50.996;4.754;2022-09-21T13:09:41;16.60;99.90
8862;DHT22;4799;50.996;4.754;2022-09-21T13:14:46;16.90;98.50
8862;DHT22;4799;50.996;4.754;2022-09-21T13:17:32;17.10;98.00
8862;DHT22;4799;50.996;4.754;2022-09-21T13:22:33;17.50;96.40
8862;DHT22;4799;50.996;4.754;2022-09-21T13:27:57;17.70;94.30
8862;DHT22;4799;50.996;4.754;2022-09-21T13:30:35;18.00;91.80
8862;DHT22;4799;50.996;4.754;2022-09-21T13:54:56;19.40;89.90
8862;DHT22;4799;50.996;4.754;2022-09-21T13:57:37;19.50;83.70
8862;DHT22;4799;50.996;4.754;2022-09-21T14:03:05;19.40;85.70
8862;DHT22;4799;50.996;4.754;2022-09-21T14:05:39;19.40;85.40
8862;DHT22;4799;50.996;4.754;2022-09-21T14:08:25;19.30;84.70
8862;DHT22;4799;50.996;4.754;2022-09-21T14:15:51;19.00;85.90
8862;DHT22;4799;50.996;4.754;2022-09-21T14:18:20;18.90;86.00
8862;DHT22;4799;50.996;4.754;2022-09-21T14:23:33;18.70;86.80
8862;DHT22;4799;50.996;4.754;2022-09-21T14:26:00;18.60;88.10
8862;DHT22;4799;50.996;4.754;2022-09-21T14:31:00;18.30;87.40
8862;DHT22;4799;50.996;4.754;2022-09-21T14:33:46;18.30;88.70
8862;DHT22;4799;50.996;4.754;2022-09-21T14:36:18;18.30;88.30
8862;DHT22;4799;50.996;4.754;2022-09-21T14:38:52;18.40;90.00
8862;DHT22;4799;50.996;4.754;2022-09-21T14:41:31;18.50;90.60
8862;DHT22;4799;50.996;4.754;2022-09-21T14:43:59;18.70;89.40
8862;DHT22;4799;50.996;4.754;2022-09-21T14:51:56;18.90;88.70
8862;DHT22;4799;50.996;4.754;2022-09-21T15:02:48;19.00;81.60
8862;DHT22;4799;50.996;4.754;2022-09-21T15:07:51;18.70;83.40
8862;DHT22;4799;50.996;4.754;2022-09-21T15:10:53;18.60;84.30
8862;DHT22;4799;50.996;4.754;2022-09-21T15:16:42;18.30;87.80
8862;DHT22;4799;50.996;4.754;2022-09-21T15:19:24;18.10;89.30
8862;DHT22;4799;50.996;4.754;2022-09-21T15:22:08;18.00;90.10
8862;DHT22;4799;50.996;4.754;2022-09-21T15:24:34;17.90;90.30
8862;DHT22;4799;50.996;4.754;2022-09-21T15:27:15;17.80;90.60
8862;DHT22;4799;50.996;4.754;2022-09-21T15:29:47;17.70;90.90
8862;DHT22;4799;50.996;4.754;2022-09-21T15:32:42;17.60;90.90
8862;DHT22;4799;50.996;4.754;2022-09-21T15:37:44;17.60;90.90
8862;DHT22;4799;50.996;4.754;2022-09-21T15:40:19;17.60;90.80
8862;DHT22;4799;50.996;4.754;2022-09-21T15:46:15;17.60;91.50
8862;DHT22;4799;50.996;4.754;2022-09-21T15:48:27;17.70;91.70
8862;DHT22;4799;50.996;4.754;2022-09-21T15:51:15;17.70;92.30
8862;DHT22;4799;50.996;4.754;2022-09-21T15:53:45;17.70;93.00
8862;DHT22;4799;50.996;4.754;2022-09-21T15:56:21;17.70;93.40
8862;DHT22;4799;50.996;4.754;2022-09-21T15:58:48;17.60;93.90
8862;DHT22;4799;50.996;4.754;2022-09-21T16:01:16;17.60;94.80
8862;DHT22;4799;50.996;4.754;2022-09-21T16:03:46;17.50;95.20
8862;DHT22;4799;50.996;4.754;2022-09-21T16:06:26;17.40;95.70
8862;DHT22;4799;50.996;4.754;2022-09-21T16:08:53;17.40;96.10
8862;DHT22;4799;50.996;4.754;2022-09-21T16:11:32;17.30;96.60
8862;DHT22;4799;50.996;4.754;2022-09-21T16:14:11;17.10;96.80
8862;DHT22;4799;50.996;4.754;2022-09-21T16:22:45;16.90;97.70
8862;DHT22;4799;50.996;4.754;2022-09-21T16:25:24;16.80;97.20
8862;DHT22;4799;50.996;4.754;2022-09-21T16:30:49;16.60;97.90
8862;DHT22;4799;50.996;4.754;2022-09-21T16:33:34;16.60;98.20
8862;DHT22;4799;50.996;4.754;2022-09-21T16:39:09;16.50;99.00
8862;DHT22;4799;50.996;4.754;2022-09-21T16:41:39;16.50;99.10
8862;DHT22;4799;50.996;4.754;2022-09-21T16:44:11;16.40;99.50
8862;DHT22;4799;50.996;4.754;2022-09-21T16:46:42;16.30;99.40
8862;DHT22;4799;50.996;4.754;2022-09-21T16:49:12;16.20;99.60
8862;DHT22;4799;50.996;4.754;2022-09-21T16:51:44;16.20;99.70
8862;DHT22;4799;50.996;4.754;2022-09-21T16:54:11;16.10;99.90
8862;DHT22;4799;50.996;4.754;2022-09-21T16:56:38;16.10;99.90
8862;DHT22;4799;50.996;4.754;2022-09-21T16:59:12;16.00;99.90
8862;DHT22;4799;50.996;4.754;2022-09-21T17:01:38;15.80;99.90
8862;DHT22;4799;50.996;4.754;2022-09-21T17:04:04;15.70;99.90
8862;DHT22;4799;50.996;4.754;2022-09-21T17:06:30;15.60;99.90
8862;DHT22;4799;50.996;4.754;2022-09-21T17:08:56;15.50;99.90
8862;DHT22;4799;50.996;4.754;2022-09-21T17:11:22;15.40;99.90
8862;DHT22;4799;50.996;4.754;2022-09-21T17:13:49;15.40;99.90
8862;DHT22;4799;50.996;4.754;2022-09-21T17:16:17;15.30;99.90
8862;DHT22;4799;50.996;4.754;2022-09-21T17:18:49;15.20;99.90
8862;DHT22;4799;50.996;4.754;2022-09-21T17:21:15;15.10;99.90
8862;DHT22;4799;50.996;4.754;2022-09-21T17:23:41;15.00;99.90
8862;DHT22;4799;50.996;4.754;2022-09-21T17:26:15;14.90;99.90
8862;DHT22;4799;50.996;4.754;2022-09-21T17:28:45;14.80;99.90
8862;DHT22;4799;50.996;4.754;2022-09-21T17:31:12;14.70;99.90
8862;DHT22;4799;50.996;4.754;2022-09-21T17:33:39;14.60;99.90
8862;DHT22;4799;50.996;4.754;2022-09-21T17:36:05;14.50;99.90
8862;DHT22;4799;50.996;4.754;2022-09-21T17:38:32;14.40;99.90
8862;DHT22;4799;50.996;4.754;2022-09-21T17:41:05;14.30;99.90
8862;DHT22;4799;50.996;4.754;2022-09-21T17:43:56;14.20;99.90
8862;DHT22;4799;50.996;4.754;2022-09-21T17:48:49;13.90;99.90
8862;DHT22;4799;50.996;4.754;2022-09-21T17:51:16;13.80;99.90
8862;DHT22;4799;50.996;4.754;2022-09-21T17:54:01;13.80;99.90
8862;DHT22;4799;50.996;4.754;2022-09-21T17:56:45;13.60;99.90
8862;DHT22;4799;50.996;4.754;2022-09-21T17:59:31;13.50;99.90
8862;DHT22;4799;50.996;4.754;2022-09-21T18:01:59;13.40;99.90
8862;DHT22;4799;50.996;4.754;2022-09-21T18:04:27;13.30;99.90
8862;DHT22;4799;50.996;4.754;2022-09-21T18:06:54;13.30;99.90
8862;DHT22;4799;50.996;4.754;2022-09-21T18:09:20;13.20;99.90
8862;DHT22;4799;50.996;4.754;2022-09-21T18:17:34;13.00;99.90
8862;DHT22;4799;50.996;4.754;2022-09-21T18:25:15;12.70;99.90
8862;DHT22;4799;50.996;4.754;2022-09-21T18:27:43;12.60;99.90
8862;DHT22;4799;50.996;4.754;2022-09-21T18:30:13;12.50;99.90
8862;DHT22;4799;50.996;4.754;2022-09-21T18:41:35;12.30;99.90
8862;DHT22;4799;50.996;4.754;2022-09-21T18:57:55;11.90;99.90
8862;DHT22;4799;50.996;4.754;2022-09-21T19:00:23;11.90;99.90
8862;DHT22;4799;50.996;4.754;2022-09-21T19:02:50;11.80;99.90
8862;DHT22;4799;50.996;4.754;2022-09-21T19:05:16;11.80;99.90
8862;DHT22;4799;50.996;4.754;2022-09-21T19:10:37;11.70;99.90
8862;DHT22;4799;50.996;4.754;2022-09-21T19:16:08;11.50;99.90
8862;DHT22;4799;50.996;4.754;2022-09-21T19:18:55;11.50;99.90
8862;DHT22;4799;50.996;4.754;2022-09-21T19:21:32;11.50;99.90
8862;DHT22;4799;50.996;4.754;2022-09-21T19:37:41;11.20;99.90
8862;DHT22;4799;50.996;4.754;2022-09-21T19:40:08;11.20;99.90
8862;DHT22;4799;50.996;4.754;2022-09-21T19:42:57;11.10;99.90
8862;DHT22;4799;50.996;4.754;2022-09-21T19:45:41;11.00;99.90
8862;DHT22;4799;50.996;4.754;2022-09-21T19:48:13;11.00;99.90
8862;DHT22;4799;50.996;4.754;2022-09-21T19:50:53;10.90;99.90
8862;DHT22;4799;50.996;4.754;2022-09-21T19:53:22;10.90;99.90
8862;DHT22;4799;50.996;4.754;2022-09-21T19:56:12;10.80;99.90
8862;DHT22;4799;50.996;4.754;2022-09-21T19:58:57;10.80;99.90
8862;DHT22;4799;50.996;4.754;2022-09-21T20:01:49;10.70;99.90
8862;DHT22;4799;50.996;4.754;2022-09-21T20:04:38;10.70;99.90
8862;DHT22;4799;50.996;4.754;2022-09-21T20:07:23;10.60;99.90
8862;DHT22;4799;50.996;4.754;2022-09-21T20:21:03;10.40;99.90
8862;DHT22;4799;50.996;4.754;2022-09-21T20:23:32;10.40;99.90
8862;DHT22;4799;50.996;4.754;2022-09-21T20:26:33;10.30;99.90
8862;DHT22;4799;50.996;4.754;2022-09-21T20:28:59;10.30;99.90
8862;DHT22;4799;50.996;4.754;2022-09-21T20:31:26;10.20;99.90
8862;DHT22;4799;50.996;4.754;2022-09-21T20:33:52;10.20;99.90
8862;DHT22;4799;50.996;4.754;2022-09-21T20:36:18;10.20;99.90
8862;DHT22;4799;50.996;4.754;2022-09-21T20:38:43;10.10;99.90
8862;DHT22;4799;50.996;4.754;2022-09-21T20:41:14;10.10;99.90
8862;DHT22;4799;50.996;4.754;2022-09-21T20:43:41;10.10;99.90
8862;DHT22;4799;50.996;4.754;2022-09-21T20:46:10;10.10;99.90
8862;DHT22;4799;50.996;4.754;2022-09-21T20:48:36;10.00;99.90
8862;DHT22;4799;50.996;4.754;2022-09-21T20:51:03;10.00;99.90
8862;DHT22;4799;50.996;4.754;2022-09-21T20:53:31;9.90;99.90
8862;DHT22;4799;50.996;4.754;2022-09-21T20:55:58;9.90;99.90
8862;DHT22;4799;50.996;4.754;2022-09-21T20:58:26;9.90;99.90
8862;DHT22;4799;50.996;4.754;2022-09-21T21:00:53;9.80;99.90
8862;DHT22;4799;50.996;4.754;2022-09-21T21:03:18;9.80;99.90
8862;DHT22;4799;50.996;4.754;2022-09-21T21:05:44;9.70;99.90